createdAt,value
2022-10-01T00:01:34.919Z,99242.63
2022-10-01T00:03:37.469Z,99235.56
2022-10-01T00:05:39.774Z,99243.44
2022-10-01T00:07:45.611Z,99238.94
2022-10-01T00:09:47.795Z,99233.81
2022-10-01T00:11:49.904Z,99244.13
2022-10-01T00:13:53.139Z,99237.91
2022-10-01T00:15:55.662Z,99230.97
2022-10-01T00:17:58.290Z,99233.53
2022-10-01T00:20:00.530Z,99234.41
2022-10-01T00:22:02.685Z,99226.63
2022-10-01T00:24:05.277Z,99230.97
2022-10-01T00:26:15.631Z,99230.94
2022-10-01T00:28:17.883Z,99223.22
2022-10-01T00:30:20.029Z,99225.59
2022-10-01T00:32:22.018Z,99226.50
2022-10-01T00:34:25.084Z,99230.25
2022-10-01T00:36:27.635Z,99218.09
2022-10-01T00:38:30.235Z,99218.09
2022-10-01T00:40:32.369Z,99233.56
2022-10-01T00:42:34.647Z,99218.75
2022-10-01T00:44:37.734Z,99221.28
2022-10-01T00:46:43.610Z,99217.03
2022-10-01T00:49:11.406Z,99230.00
2022-10-01T00:51:14.100Z,99227.53
2022-10-01T00:53:18.566Z,99228.44
2022-10-01T00:55:27.002Z,99221.53
2022-10-01T00:57:29.676Z,99222.28
2022-10-01T00:59:32.153Z,99237.97
2022-10-01T01:01:37.585Z,99228.50
2022-10-01T01:03:40.048Z,99225.84
2022-10-01T01:05:42.202Z,99220.84
2022-10-01T01:07:45.973Z,99231.53
2022-10-01T01:09:51.090Z,99232.53
2022-10-01T01:12:14.633Z,99230.59
2022-10-01T01:14:25.786Z,99221.69
2022-10-01T01:16:48.227Z,99220.78
2022-10-01T01:19:00.852Z,99223.56
2022-10-01T01:21:30.380Z,99227.25
2022-10-01T01:24:05.394Z,99223.88
2022-10-01T01:26:22.797Z,99223.84
2022-10-01T01:28:39.063Z,99219.50
2022-10-01T01:30:41.682Z,99217.84
2022-10-01T01:33:03.377Z,99216.06
2022-10-01T01:35:08.746Z,99213.50
2022-10-01T01:37:15.850Z,99200.53
2022-10-01T01:39:20.655Z,99209.13
2022-10-01T01:41:27.585Z,99193.59
2022-10-01T01:43:33.499Z,99203.91
2022-10-01T01:45:40.117Z,99211.63
2022-10-01T01:47:43.946Z,99208.06
2022-10-01T01:49:46.828Z,99208.03
2022-10-01T01:51:56.266Z,99207.25
2022-10-01T01:53:58.990Z,99207.25
2022-10-01T01:56:02.803Z,99202.91
2022-10-01T01:58:04.906Z,99194.16
2022-10-01T02:00:08.908Z,99206.47
2022-10-01T02:02:23.661Z,99208.06
2022-10-01T02:04:36.236Z,99199.34
2022-10-01T02:06:54.082Z,99201.78
2022-10-01T02:09:28.730Z,99200.88
2022-10-01T02:11:40.344Z,99199.16
2022-10-01T02:13:50.582Z,99196.69
2022-10-01T02:16:04.635Z,99199.13
2022-10-01T02:18:30.362Z,99197.31
2022-10-01T02:20:39.800Z,99197.28
2022-10-01T02:23:03.808Z,99189.47
2022-10-01T02:25:08.740Z,99183.63
2022-10-01T02:27:35.815Z,99193.22
2022-10-01T02:29:40.370Z,99181.09
2022-10-01T02:31:42.728Z,99175.13
2022-10-01T02:33:47.053Z,99177.78
2022-10-01T02:35:53.107Z,99187.44
2022-10-01T02:37:56.824Z,99178.66
2022-10-01T02:40:01.846Z,99180.56
2022-10-01T02:42:08.034Z,99176.16
2022-10-01T02:44:16.037Z,99179.66
2022-10-01T02:46:28.510Z,99166.59
2022-10-01T02:48:30.523Z,99166.75
2022-10-01T02:50:41.883Z,99165.91
2022-10-01T02:52:52.960Z,99163.28
2022-10-01T02:55:32.399Z,99159.78
2022-10-01T02:57:34.868Z,99162.53
2022-10-01T02:59:36.993Z,99166.81
2022-10-01T03:01:39.585Z,99164.16
2022-10-01T03:03:43.164Z,99163.19
2022-10-01T03:05:45.242Z,99158.88
2022-10-01T03:07:48.207Z,99163.22
2022-10-01T03:09:51.165Z,99162.31
2022-10-01T03:11:53.243Z,99159.78
2022-10-01T03:13:55.451Z,99158.00
2022-10-01T03:15:57.530Z,99160.66
2022-10-01T03:17:59.537Z,99165.09
2022-10-01T03:20:01.922Z,99159.91
2022-10-01T03:22:05.764Z,99166.81
2022-10-01T03:24:07.672Z,99172.06
2022-10-01T03:26:09.867Z,99175.50
2022-10-01T03:28:13.571Z,99171.69
2022-10-01T03:30:15.821Z,99155.09
2022-10-01T03:32:19.053Z,99166.19
2022-10-01T03:34:21.798Z,99167.03
2022-10-01T03:36:23.943Z,99149.53
2022-10-01T03:38:26.036Z,99163.44
2022-10-01T03:40:28.969Z,99154.78
2022-10-01T03:42:30.990Z,99164.47
2022-10-01T03:44:33.901Z,99164.34
2022-10-01T03:46:36.034Z,99162.59
2022-10-01T03:48:38.437Z,99159.88
2022-10-01T03:50:40.614Z,99162.47
2022-10-01T03:52:42.935Z,99151.09
2022-10-01T03:54:45.166Z,99158.81
2022-10-01T03:56:48.582Z,99144.75
2022-10-01T03:58:51.108Z,99149.81
2022-10-01T04:00:55.345Z,99147.97
2022-10-01T04:02:58.318Z,99151.44
2022-10-01T04:05:02.780Z,99149.81
2022-10-01T04:07:07.919Z,99160.41
2022-10-01T04:09:10.067Z,99144.78
2022-10-01T04:11:12.424Z,99153.38
2022-10-01T04:13:15.401Z,99152.41
2022-10-01T04:15:17.589Z,99156.78
2022-10-01T04:17:20.552Z,99163.75
2022-10-01T04:19:22.553Z,99156.00
2022-10-01T04:21:24.586Z,99156.94
2022-10-01T04:23:27.067Z,99163.00
2022-10-01T04:25:30.510Z,99157.78
2022-10-01T04:27:32.541Z,99153.38
2022-10-01T04:29:39.360Z,99155.03
2022-10-01T04:31:42.446Z,99154.88
2022-10-01T04:33:44.995Z,99154.88
2022-10-01T04:35:47.150Z,99159.28
2022-10-01T04:37:59.394Z,99149.72
2022-10-01T04:40:01.865Z,99154.22
2022-10-01T04:42:05.499Z,99158.53
2022-10-01T04:44:07.615Z,99159.41
2022-10-01T04:46:09.704Z,99155.09
2022-10-01T04:48:11.930Z,99150.69
2022-10-01T04:50:15.906Z,99154.81
2022-10-01T04:52:21.642Z,99157.38
2022-10-01T04:54:23.600Z,99158.31
2022-10-01T04:56:25.631Z,99157.53
2022-10-01T04:58:28.279Z,99146.09
2022-10-01T05:00:30.462Z,99150.50
2022-10-01T05:02:34.722Z,99159.25
2022-10-01T05:04:36.904Z,99156.59
2022-10-01T05:06:39.046Z,99150.50
2022-10-01T05:08:41.113Z,99158.28
2022-10-01T05:10:44.493Z,99154.13
2022-10-01T05:12:47.936Z,99156.66
2022-10-01T05:14:51.173Z,99156.72
2022-10-01T05:16:53.360Z,99153.38
2022-10-01T05:18:55.410Z,99160.47
2022-10-01T05:20:57.599Z,99157.69
2022-10-01T05:22:59.766Z,99157.53
2022-10-01T05:25:02.384Z,99155.81
2022-10-01T05:27:04.973Z,99148.06
2022-10-01T05:29:07.121Z,99160.16
2022-10-01T05:31:09.445Z,99144.38
2022-10-01T05:33:11.709Z,99149.41
2022-10-01T05:35:13.797Z,99135.13
2022-10-01T05:37:16.131Z,99124.88
2022-10-01T05:39:18.334Z,99128.09
2022-10-01T05:41:20.492Z,99135.22
2022-10-01T05:43:22.610Z,99133.38
2022-10-01T05:45:25.512Z,99137.53
2022-10-01T05:47:27.711Z,99131.41
2022-10-01T05:49:29.795Z,99126.97
2022-10-01T05:51:32.041Z,99118.31
2022-10-01T05:53:37.788Z,99128.75
2022-10-01T05:55:40.471Z,99128.75
2022-10-01T05:57:42.523Z,99120.84
2022-10-01T05:59:44.616Z,99123.31
2022-10-01T06:01:46.750Z,99128.59
2022-10-01T06:03:53.978Z,99126.13
2022-10-01T06:05:56.370Z,99123.56
2022-10-01T06:07:59.052Z,99128.81
2022-10-01T06:10:01.161Z,99125.25
2022-10-01T06:12:08.711Z,99126.00
2022-10-01T06:14:10.834Z,99125.84
2022-10-01T06:16:14.238Z,99125.69
2022-10-01T06:18:16.477Z,99119.34
2022-10-01T06:20:19.716Z,99123.50
2022-10-01T06:22:22.254Z,99111.75
2022-10-01T06:24:24.332Z,99108.91
2022-10-01T06:26:26.566Z,99107.06
2022-10-01T06:28:28.689Z,99112.84
2022-10-01T06:30:32.021Z,99105.63
2022-10-01T06:32:35.285Z,99112.63
2022-10-01T06:34:37.488Z,99110.69
2022-10-01T06:36:39.475Z,99113.16
2022-10-01T06:38:43.069Z,99102.53
2022-10-01T06:40:45.191Z,99098.16
2022-10-01T06:42:55.999Z,99104.13
2022-10-01T06:44:59.196Z,99099.66
2022-10-01T06:47:01.475Z,99107.53
2022-10-01T06:49:03.659Z,99103.16
2022-10-01T06:51:06.298Z,99109.06
2022-10-01T06:53:08.409Z,99092.19
2022-10-01T06:55:15.697Z,99102.28
2022-10-01T06:57:18.729Z,99082.59
2022-10-01T06:59:21.375Z,99073.59
2022-10-01T07:01:23.448Z,99084.69
2022-10-01T07:03:26.155Z,99085.50
2022-10-01T07:05:28.465Z,99071.44
2022-10-01T07:07:32.348Z,99070.50
2022-10-01T07:09:34.606Z,99081.19
2022-10-01T07:11:41.349Z,99083.72
2022-10-01T07:13:43.523Z,99073.09
2022-10-01T07:15:46.176Z,99072.91
2022-10-01T07:17:50.671Z,99080.84
2022-10-01T07:19:52.848Z,99074.75
2022-10-01T07:21:54.827Z,99078.25
2022-10-01T07:23:56.929Z,99061.66
2022-10-01T07:25:59.621Z,99060.88
2022-10-01T07:28:06.017Z,99067.72
2022-10-01T07:30:08.793Z,99065.16
2022-10-01T07:32:11.027Z,99032.25
2022-10-01T07:34:13.118Z,99063.25
2022-10-01T07:36:15.386Z,99060.56
2022-10-01T07:38:17.446Z,99061.34
2022-10-01T07:40:19.874Z,99057.56
2022-10-01T07:42:22.044Z,99054.00
2022-10-01T07:44:24.153Z,99050.81
2022-10-01T07:46:26.278Z,99052.75
2022-10-01T07:48:28.682Z,99046.59
2022-10-01T07:50:30.962Z,99051.09
2022-10-01T07:52:33.241Z,99038.59
2022-10-01T07:54:35.228Z,99032.06
2022-10-01T07:56:37.870Z,99024.13
2022-10-01T07:58:40.137Z,99038.56
2022-10-01T08:00:43.633Z,99030.13
2022-10-01T08:02:50.904Z,99024.91
2022-10-01T08:05:11.789Z,99023.50
2022-10-01T08:07:15.440Z,99028.19
2022-10-01T08:09:17.781Z,99018.25
2022-10-01T08:11:20.307Z,99021.84
2022-10-01T08:13:25.106Z,99016.22
2022-10-01T08:15:28.304Z,99010.28
2022-10-01T08:17:30.790Z,98995.31
2022-10-01T08:19:32.868Z,98979.03
2022-10-01T08:21:37.885Z,99008.13
2022-10-01T08:23:39.925Z,99001.69
2022-10-01T08:25:42.755Z,98995.44
2022-10-01T08:27:44.865Z,99003.97
2022-10-01T08:29:46.958Z,98992.66
2022-10-01T08:31:49.416Z,98979.97
2022-10-01T08:33:52.378Z,98981.22
2022-10-01T08:35:54.508Z,98979.09
2022-10-01T08:38:04.887Z,98975.75
2022-10-01T08:40:07.838Z,98985.59
2022-10-01T08:42:34.637Z,98974.84
2022-10-01T08:44:41.408Z,98976.84
2022-10-01T08:46:44.010Z,98974.94
2022-10-01T08:49:21.332Z,98978.69
2022-10-01T08:51:39.496Z,98978.91
2022-10-01T08:53:56.074Z,98973.38
2022-10-01T08:56:00.494Z,98969.38
2022-10-01T08:58:11.054Z,98956.72
2022-10-01T09:00:18.743Z,98960.84
2022-10-01T09:02:20.963Z,98966.75
2022-10-01T09:04:24.078Z,98963.25
2022-10-01T09:06:27.818Z,98961.81
2022-10-01T09:08:43.892Z,98968.88
2022-10-01T09:11:07.702Z,98958.63
2022-10-01T09:13:13.531Z,98969.16
2022-10-01T09:15:33.008Z,98961.22
2022-10-01T09:17:47.116Z,98957.69
2022-10-01T09:20:11.415Z,98950.78
2022-10-01T09:22:26.306Z,98948.16
2022-10-01T09:24:40.093Z,98942.09
2022-10-01T09:26:48.955Z,98939.72
2022-10-01T09:28:54.958Z,98943.84
2022-10-01T09:31:00.810Z,98948.97
2022-10-01T09:33:13.380Z,98941.63
2022-10-01T09:35:35.022Z,98930.84
2022-10-01T09:37:49.098Z,98930.63
2022-10-01T09:40:32.487Z,98915.38
2022-10-01T09:42:35.032Z,98921.03
2022-10-01T09:44:37.853Z,98908.34
2022-10-01T09:46:40.038Z,98913.56
2022-10-01T09:48:54.451Z,98914.59
2022-10-01T09:51:18.643Z,98904.44
2022-10-01T09:53:26.609Z,98896.19
2022-10-01T09:55:39.020Z,98898.03
2022-10-01T09:57:46.387Z,98898.56
2022-10-01T10:00:10.571Z,98903.47
2022-10-01T10:02:36.690Z,98885.28
2022-10-01T10:04:39.377Z,98885.72
2022-10-01T10:06:43.952Z,98883.44
2022-10-01T10:08:46.172Z,98878.69
2022-10-01T10:10:54.751Z,98878.34
2022-10-01T10:13:10.985Z,98877.00
2022-10-01T10:15:18.822Z,98871.25
2022-10-01T10:17:22.255Z,98850.13
2022-10-01T10:19:27.580Z,98873.22
2022-10-01T10:21:32.303Z,98868.81
2022-10-01T10:23:34.776Z,98864.72
2022-10-01T10:25:36.933Z,98859.50
2022-10-01T10:27:38.999Z,98851.63
2022-10-01T10:29:43.488Z,98863.81
2022-10-01T10:31:46.592Z,98861.22
2022-10-01T10:34:19.495Z,98864.81
2022-10-01T10:36:29.034Z,98863.88
2022-10-01T10:38:35.175Z,98862.78
2022-10-01T10:40:43.042Z,98865.28
2022-10-01T10:42:54.315Z,98835.59
2022-10-01T10:45:03.664Z,98861.34
2022-10-01T10:47:12.072Z,98860.41
2022-10-01T10:49:30.212Z,98853.31
2022-10-01T10:51:56.396Z,98858.16
2022-10-01T10:54:01.346Z,98848.63
2022-10-01T10:56:06.551Z,98841.50
2022-10-01T10:58:15.198Z,98849.38
2022-10-01T11:00:21.100Z,98849.44
2022-10-01T11:02:25.608Z,98842.31
2022-10-01T11:04:43.455Z,98837.13
2022-10-01T11:06:55.789Z,98847.84
2022-10-01T11:09:07.285Z,98836.78
2022-10-01T11:11:37.464Z,98838.78
2022-10-01T11:14:05.735Z,98818.53
2022-10-01T11:16:20.423Z,98833.88
2022-10-01T11:18:34.013Z,98837.13
2022-10-01T11:20:52.111Z,98836.91
2022-10-01T11:23:00.099Z,98824.81
2022-10-01T11:25:32.578Z,98815.19
2022-10-01T11:27:49.874Z,98826.97
2022-10-01T11:30:23.210Z,98821.25
2022-10-01T11:32:38.444Z,98813.63
2022-10-01T11:34:57.248Z,98817.97
2022-10-01T11:37:25.209Z,98814.72
2022-10-01T11:39:30.936Z,98810.91
2022-10-01T11:41:44.925Z,98805.44
2022-10-01T11:43:56.660Z,98808.69
2022-10-01T11:46:13.367Z,98801.25
2022-10-01T11:48:35.743Z,98787.09
2022-10-01T11:50:43.236Z,98791.72
2022-10-01T11:52:59.223Z,98800.00
2022-10-01T11:55:29.767Z,98801.50
2022-10-01T11:57:50.809Z,98796.25
2022-10-01T12:00:15.902Z,98790.00
2022-10-01T12:02:21.174Z,98780.88
2022-10-01T12:04:35.021Z,98782.03
2022-10-01T12:06:53.946Z,98782.28
2022-10-01T12:09:08.760Z,98764.63
2022-10-01T12:11:21.003Z,98770.44
2022-10-01T12:13:32.892Z,98764.88
2022-10-01T12:15:55.120Z,98766.34
2022-10-01T12:18:32.812Z,98753.53
2022-10-01T12:20:50.871Z,98757.41
2022-10-01T12:22:54.885Z,98753.00
2022-10-01T12:24:57.374Z,98747.22
2022-10-01T12:27:24.198Z,98753.50
2022-10-01T12:29:43.167Z,98745.72
2022-10-01T12:32:04.378Z,98715.25
2022-10-01T12:35:00.806Z,98753.59
2022-10-01T12:37:30.402Z,98747.34
2022-10-01T12:40:12.287Z,98729.06
2022-10-01T12:42:14.474Z,98749.84
2022-10-01T12:44:31.045Z,98748.53
2022-10-01T12:47:11.542Z,98740.84
2022-10-01T12:49:23.621Z,98743.78
2022-10-01T12:51:40.400Z,98741.28
2022-10-01T12:54:13.434Z,98730.56
2022-10-01T12:56:31.059Z,98731.34
2022-10-01T12:59:04.166Z,98732.13
2022-10-01T13:01:30.129Z,98716.25
2022-10-01T13:03:37.537Z,98721.75
2022-10-01T13:06:08.175Z,98715.00
2022-10-01T13:08:29.055Z,98715.72
2022-10-01T13:10:53.886Z,98703.16
2022-10-01T13:13:18.069Z,98706.44
2022-10-01T13:15:29.973Z,98702.06
2022-10-01T13:17:42.719Z,98702.78
2022-10-01T13:20:15.807Z,98706.09
2022-10-01T13:22:21.648Z,98715.22
2022-10-01T13:24:40.990Z,98715.41
2022-10-01T13:26:59.978Z,98711.78
2022-10-01T13:29:35.440Z,98712.31
2022-10-01T13:31:57.057Z,98712.94
2022-10-01T13:34:01.237Z,98698.00
2022-10-01T13:36:08.368Z,98713.88
2022-10-01T13:38:15.582Z,98720.03
2022-10-01T13:40:30.560Z,98722.75
2022-10-01T13:43:16.354Z,98722.00
2022-10-01T13:45:44.267Z,98720.22
2022-10-01T13:47:47.276Z,98712.50
2022-10-01T13:50:23.936Z,98717.47
2022-10-01T13:52:26.677Z,98715.94
2022-10-01T13:54:37.709Z,98708.13
2022-10-01T13:56:39.908Z,98709.13
2022-10-01T13:58:44.346Z,98700.44
2022-10-01T14:00:53.613Z,98699.50
2022-10-01T14:03:22.557Z,98686.63
2022-10-01T14:05:43.189Z,98679.88
2022-10-01T14:07:47.892Z,98664.47
2022-10-01T14:09:54.398Z,98675.97
2022-10-01T14:12:22.707Z,98669.75
2022-10-01T14:15:03.894Z,98667.97
2022-10-01T14:17:08.657Z,98657.44
2022-10-01T14:19:19.826Z,98651.41
2022-10-01T14:21:41.582Z,98645.22
2022-10-01T14:24:08.170Z,98628.34
2022-10-01T14:26:33.599Z,98640.66
2022-10-01T14:29:05.864Z,98650.38
2022-10-01T14:31:35.879Z,98642.88
2022-10-01T14:33:47.025Z,98643.94
2022-10-01T14:36:23.320Z,98650.28
2022-10-01T14:38:25.807Z,98642.91
2022-10-01T14:40:37.244Z,98642.19
2022-10-01T14:42:39.323Z,98633.78
2022-10-01T14:44:44.331Z,98631.44
2022-10-01T14:46:46.516Z,98633.56
2022-10-01T14:48:56.497Z,98634.91
2022-10-01T14:51:01.837Z,98633.00
2022-10-01T14:53:06.542Z,98633.06
2022-10-01T14:55:13.885Z,98618.56
2022-10-01T14:57:28.445Z,98623.25
2022-10-01T14:59:35.608Z,98612.31
2022-10-01T15:01:37.836Z,98616.09
2022-10-01T15:03:41.969Z,98617.34
2022-10-01T15:05:46.843Z,98610.88
2022-10-01T15:07:49.098Z,98620.56
2022-10-01T15:09:51.467Z,98605.88
2022-10-01T15:11:53.703Z,98600.69
2022-10-01T15:14:05.296Z,98569.16
2022-10-01T15:16:19.043Z,98577.59
2022-10-01T15:18:22.918Z,98590.63
2022-10-01T15:20:25.427Z,98581.22
2022-10-01T15:22:30.244Z,98569.03
2022-10-01T15:24:38.194Z,98583.06
2022-10-01T15:26:40.527Z,98573.53
2022-10-01T15:28:44.555Z,98572.75
2022-10-01T15:30:46.920Z,98564.25
2022-10-01T15:32:49.786Z,98572.13
2022-10-01T15:34:58.014Z,98562.63
2022-10-01T15:37:01.305Z,98555.84
2022-10-01T15:39:33.972Z,98547.97
2022-10-01T15:41:37.992Z,98549.41
2022-10-01T15:43:42.356Z,98542.38
2022-10-01T15:45:44.489Z,98536.28
2022-10-01T15:47:52.293Z,98539.59
2022-10-01T15:50:12.856Z,98534.19
2022-10-01T15:52:35.463Z,98523.97
2022-10-01T15:54:43.179Z,98516.06
2022-10-01T15:56:48.725Z,98532.38
2022-10-01T15:58:54.685Z,98531.53
2022-10-01T16:01:09.757Z,98520.06
2022-10-01T16:03:23.406Z,98516.56
2022-10-01T16:05:44.918Z,98512.88
2022-10-01T16:07:54.776Z,98506.41
2022-10-01T16:09:59.238Z,98495.69
2022-10-01T16:12:18.823Z,98498.91
2022-10-01T16:14:27.922Z,98495.13
2022-10-01T16:16:30.335Z,98491.41
2022-10-01T16:18:34.882Z,98476.44
2022-10-01T16:20:43.371Z,98486.63
2022-10-01T16:22:47.952Z,98476.88
2022-10-01T16:24:51.378Z,98480.28
2022-10-01T16:27:00.560Z,98463.66
2022-10-01T16:29:02.774Z,98472.94
2022-10-01T16:31:05.034Z,98471.28
2022-10-01T16:33:10.562Z,98466.84
2022-10-01T16:35:18.822Z,98459.63
2022-10-01T16:37:20.952Z,98447.59
2022-10-01T16:39:24.622Z,98459.63
2022-10-01T16:41:27.479Z,98460.38
2022-10-01T16:43:31.357Z,98445.53
2022-10-01T16:45:42.869Z,98437.59
2022-10-01T16:47:46.793Z,98442.78
2022-10-01T16:49:51.659Z,98444.28
2022-10-01T16:51:55.620Z,98431.06
2022-10-01T16:53:59.786Z,98427.28
2022-10-01T16:56:04.638Z,98428.91
2022-10-01T16:58:07.008Z,98431.41
2022-10-01T17:00:10.536Z,98419.03
2022-10-01T17:02:14.404Z,98409.41
2022-10-01T17:04:16.752Z,98418.91
2022-10-01T17:06:18.919Z,98405.75
2022-10-01T17:08:24.274Z,98404.13
2022-10-01T17:10:29.298Z,98396.38
2022-10-01T17:12:31.839Z,98390.91
2022-10-01T17:14:33.919Z,98381.44
2022-10-01T17:16:36.506Z,98384.94
2022-10-01T17:18:43.830Z,98368.47
2022-10-01T17:20:46.532Z,98369.16
2022-10-01T17:22:49.469Z,98366.91
2022-10-01T17:24:53.092Z,98364.97
2022-10-01T17:26:56.107Z,98340.19
2022-10-01T17:28:58.588Z,98360.59
2022-10-01T17:31:00.716Z,98362.25
2022-10-01T17:33:03.020Z,98347.66
2022-10-01T17:35:09.240Z,98347.56
2022-10-01T17:37:11.810Z,98346.63
2022-10-01T17:39:14.055Z,98333.59
2022-10-01T17:41:16.216Z,98331.28
2022-10-01T17:43:18.627Z,98341.44
2022-10-01T17:45:20.856Z,98326.06
2022-10-01T17:47:22.903Z,98326.59
2022-10-01T17:49:25.027Z,98330.16
2022-10-01T17:51:27.222Z,98323.94
2022-10-01T17:53:34.188Z,98314.31
2022-10-01T17:55:42.123Z,98311.59
2022-10-01T17:57:44.395Z,98314.25
2022-10-01T17:59:46.444Z,98302.06
2022-10-01T18:01:49.029Z,98289.63
2022-10-01T18:04:00.436Z,98285.28
2022-10-01T18:06:03.419Z,98289.47
2022-10-01T18:08:05.523Z,98273.19
2022-10-01T18:10:11.999Z,98285.91
2022-10-01T18:12:15.044Z,98286.84
2022-10-01T18:14:17.149Z,98288.53
2022-10-01T18:16:19.916Z,98276.19
2022-10-01T18:20:44.183Z,98250.81
2022-10-01T18:22:46.273Z,98242.88
2022-10-01T18:24:48.565Z,98234.41
2022-10-01T18:26:51.768Z,98226.66
2022-10-01T18:29:07.875Z,98249.41
2022-10-01T18:31:13.590Z,98264.31
2022-10-01T18:33:15.778Z,98244.47
2022-10-01T18:35:28.327Z,98277.28
2022-10-01T18:37:45.728Z,98278.97
2022-10-01T18:39:55.125Z,98270.22
2022-10-01T18:41:58.346Z,98254.97
2022-10-01T18:44:04.645Z,98243.72
2022-10-01T18:46:25.562Z,98251.41
2022-10-01T18:48:43.001Z,98243.81
2022-10-01T18:51:05.348Z,98241.19
2022-10-01T18:53:32.864Z,98255.97
2022-10-01T18:55:37.997Z,98253.81
2022-10-01T18:58:00.484Z,98254.56
2022-10-01T19:00:27.158Z,98261.41
2022-10-01T19:02:41.243Z,98249.91
2022-10-01T19:04:51.597Z,98241.13
2022-10-01T19:07:35.173Z,98236.97
2022-10-01T19:09:43.410Z,98249.91
2022-10-01T19:11:54.544Z,98242.06
2022-10-01T19:13:59.357Z,98241.22
2022-10-01T19:16:01.381Z,98241.38
2022-10-01T19:18:29.114Z,98241.44
2022-10-01T19:20:45.946Z,98234.53
2022-10-01T19:22:48.278Z,98232.94
2022-10-01T19:25:15.008Z,98219.88
2022-10-01T19:27:35.363Z,98224.53
2022-10-01T19:29:49.587Z,98204.53
2022-10-01T19:31:57.810Z,98198.69
2022-10-01T19:34:23.586Z,98204.06
2022-10-01T19:36:34.412Z,98183.50
2022-10-01T19:38:42.625Z,98176.84
2022-10-01T19:40:55.922Z,98188.16
2022-10-01T19:43:22.953Z,98183.13
2022-10-01T19:45:43.869Z,98180.50
2022-10-01T19:48:00.244Z,98171.88
2022-10-01T19:50:26.808Z,98176.38
2022-10-01T19:52:33.180Z,98173.13
2022-10-01T19:54:42.196Z,98155.09
2022-10-01T19:56:51.022Z,98169.91
2022-10-01T19:58:53.930Z,98163.06
2022-10-01T20:00:57.845Z,98169.22
2022-10-01T20:03:19.201Z,98160.44
2022-10-01T20:05:25.900Z,98155.41
2022-10-01T20:07:34.676Z,98150.38
2022-10-01T20:10:05.246Z,98144.41
2022-10-01T20:12:29.087Z,98136.78
2022-10-01T20:15:21.133Z,98144.53
2022-10-01T20:17:44.982Z,98147.34
2022-10-01T20:19:58.438Z,98150.81
2022-10-01T20:22:07.748Z,98119.72
2022-10-01T20:24:18.970Z,98088.69
2022-10-01T20:26:35.810Z,98127.31
2022-10-01T20:28:52.467Z,98131.81
2022-10-01T20:31:05.003Z,98138.97
2022-10-01T20:33:20.365Z,98138.88
2022-10-01T20:35:53.635Z,98134.41
2022-10-01T20:38:06.950Z,98129.25
2022-10-01T20:40:25.333Z,98134.91
2022-10-01T20:42:45.049Z,98129.50
2022-10-01T20:44:47.746Z,98131.03
2022-10-01T20:46:59.314Z,98130.97
2022-10-01T20:49:06.944Z,98126.63
2022-10-01T20:51:17.861Z,98122.03
2022-10-01T20:53:25.236Z,98124.59
2022-10-01T20:55:39.104Z,98120.97
2022-10-01T20:57:50.734Z,98119.09
2022-10-01T20:59:55.569Z,98115.41
2022-10-01T21:02:22.461Z,98127.59
2022-10-01T21:04:32.883Z,98116.22
2022-10-01T21:06:41.319Z,98122.31
2022-10-01T21:08:51.840Z,98122.19
2022-10-01T21:10:59.808Z,98128.41
2022-10-01T21:13:47.337Z,98116.16
2022-10-01T21:16:14.464Z,98125.13
2022-10-01T21:18:43.007Z,98128.50
2022-10-01T21:20:56.780Z,98115.59
2022-10-01T21:23:49.365Z,98122.41
2022-10-01T21:26:03.217Z,98126.00
2022-10-01T21:28:29.770Z,98126.78
2022-10-01T21:30:53.723Z,98125.94
2022-10-01T21:33:02.593Z,98124.19
2022-10-01T21:35:21.669Z,98129.44
2022-10-01T21:37:40.899Z,98126.78
2022-10-01T21:40:20.495Z,98133.88
2022-10-01T21:42:53.232Z,98133.91
2022-10-01T21:45:22.378Z,98126.06
2022-10-01T21:47:41.016Z,98126.13
2022-10-01T21:50:19.190Z,98135.84
2022-10-01T21:52:52.112Z,98122.97
2022-10-01T21:55:07.120Z,98132.59
2022-10-01T21:57:16.716Z,98130.81
2022-10-01T21:59:30.788Z,98133.47
2022-10-01T22:02:03.485Z,98129.09
2022-10-01T22:04:20.255Z,98127.69
2022-10-01T22:06:42.287Z,98131.19
2022-10-01T22:09:07.903Z,98127.81
2022-10-01T22:11:21.483Z,98138.09
2022-10-01T22:13:28.681Z,98132.22
2022-10-01T22:15:41.120Z,98144.22
2022-10-01T22:17:46.399Z,98150.38
2022-10-01T22:19:52.751Z,98137.41
2022-10-01T22:22:30.136Z,98150.38
2022-10-01T22:24:39.723Z,98134.09
2022-10-01T22:26:53.982Z,98141.00
2022-10-01T22:28:57.020Z,98141.19
2022-10-01T22:31:01.000Z,98149.13
2022-10-01T22:33:12.497Z,98145.63
2022-10-01T22:35:25.459Z,98157.13
2022-10-01T22:37:45.920Z,98145.25
2022-10-01T22:39:57.226Z,98150.72
2022-10-01T22:42:03.273Z,98146.94
2022-10-01T22:44:16.447Z,98146.53
2022-10-01T22:46:37.739Z,98149.53
2022-10-01T22:48:52.841Z,98153.47
2022-10-01T22:51:38.912Z,98139.03
2022-10-01T22:53:52.568Z,98158.47
2022-10-01T22:55:57.024Z,98143.88
2022-10-01T22:58:32.818Z,98138.97
2022-10-01T23:00:44.707Z,98140.09
2022-10-01T23:03:21.274Z,98156.28
2022-10-01T23:05:46.052Z,98154.06
2022-10-01T23:08:10.032Z,98148.16
2022-10-01T23:10:44.416Z,98152.16
2022-10-01T23:13:11.421Z,98151.78
2022-10-01T23:15:21.581Z,98148.63
2022-10-01T23:17:45.627Z,98145.53
2022-10-01T23:20:29.790Z,98115.19
2022-10-01T23:22:43.888Z,98147.16
2022-10-01T23:25:06.688Z,98135.78
2022-10-01T23:27:25.959Z,98149.16
2022-10-01T23:30:04.290Z,98139.56
2022-10-01T23:32:17.482Z,98140.19
2022-10-01T23:34:22.610Z,98155.03
2022-10-01T23:36:53.689Z,98169.38
2022-10-01T23:39:08.331Z,98163.81
2022-10-01T23:41:35.397Z,98163.09
2022-10-01T23:44:03.447Z,98153.81
2022-10-01T23:46:14.199Z,98161.88
2022-10-01T23:48:42.641Z,98164.81
2022-10-01T23:50:53.675Z,98163.34
2022-10-01T23:53:05.073Z,98163.41
2022-10-01T23:55:42.180Z,98165.16
2022-10-01T23:57:45.206Z,98156.69
2022-10-01T23:59:57.740Z,98165.97
